EGSS/STN METAR and TAF weather

Enter ICAO airport designator
Station Type Date Time Source
EGSS METAR 2018/01/19 17:20 UTC NOAA

EGSS 191720Z AUTO 24007KT 9999 FEW043 03/M01 Q1007


Station Type Date Time Source
EGSS Decoded METAR 2018/01/19 17:20 UTC NOAA

Stansted Airport, United Kingdom (EGSS) 51-53N 000-14E 0M
Jan 19, 2018 - 12:20 PM EST / 2018.01.19 1720 UTC
Wind: from the WSW (240 degrees) at 8 MPH (7 KT):0
Visibility: greater than 7 mile(s):0
Sky conditions: mostly clear
Temperature: 37 F (3 C)
Dew Point: 30 F (-1 C)
Relative Humidity: 74%
Pressure (altimeter): 29.74 in. Hg (1007 hPa)
ob: EGSS 191720Z AUTO 24007KT 9999 FEW043 03/M01 Q1007
cycle: 17

Station Type Date Time Source
EGSS TAF 2018/01/19 18:15 UTC NOAA

TAF EGSS 191700Z 1918/2024 25010KT 9999 FEW030 PROB30
TEMPO 2000/2004 BKN007
BECMG 2004/2007 VRB03KT 6000 -RADZ BKN005
TEMPO 2007/2013 2000 RADZ BKN003 PROB30
TEMPO 2009/2014 1400 BR BKN001
TEMPO 2014/2017 BKN004
BECMG 2017/2020 9999 NSW SCT011
TEMPO 2020/2024 BKN010


Example: see airport list